Time;durP1;ratioP1;P1;durP2;ratioP2;P2;SDS_P1;SDS_P2;PMS_P1;PMS_P2;Temp;Humidity;BMP_temperature;BMP_pressure;BME280_temperature;BME280_humidity;BME280_pressure;Samples;Min_cycle;Max_cycle;Signal;HPM_P1;HPM_P2
2023/09/21 00:01:03;;;;;;;3.10;1.63;;;;;;;18.17;nan;61266.63;5093925;28;20177;-66
2023/09/21 00:03:28;;;;;;;2.97;1.10;;;;;;;15.48;nan;61713.50;5093891;28;20175;-66
2023/09/21 00:05:56;;;;;;;1.48;1.10;;;;;;;18.16;nan;61259.75;5093295;28;20260;-66
2023/09/21 00:08:23;;;;;;;1.85;1.50;;;;;;;17.81;nan;61223.41;5093522;28;20204;-66
2023/09/21 00:10:50;;;;;;;1.67;1.20;;;;;;;17.90;nan;61185.03;5092685;28;20243;-67
2023/09/21 00:13:15;;;;;;;1.40;1.30;;;;;;;18.09;nan;61216.22;5093408;28;20537;-66
2023/09/21 00:15:42;;;;;;;1.05;1.02;;;;;;;17.83;nan;61259.84;5093449;28;20180;-66
2023/09/21 00:18:08;;;;;;;1.63;1.20;;;;;;;18.02;nan;61187.66;5093554;28;20643;-66
2023/09/21 00:20:42;;;;;;;1.73;1.48;;;;;;;18.01;nan;61181.34;5093295;28;20197;-66
2023/09/21 00:23:11;;;;;;;3.33;1.98;;;;;;;17.83;nan;61044.78;5093045;28;20252;-66
2023/09/21 00:25:37;;;;;;;1.38;1.27;;;;;;;17.94;nan;61078.38;5091693;28;20226;-66
2023/09/21 00:28:30;;;;;;;1.27;1.17;;;;;;;17.95;nan;61208.75;5090821;28;20276;-66
2023/09/21 00:30:59;;;;;;;1.45;1.10;;;;;;;17.88;nan;61038.06;5090788;28;20196;-66
2023/09/21 00:33:27;;;;;;;1.85;1.33;;;;;;;17.82;nan;61002.31;5092089;28;20261;-66
2023/09/21 00:35:53;;;;;;;1.65;1.25;;;;;;;17.70;nan;61043.66;5087102;28;20577;-65
2023/09/21 00:38:19;;;;;;;1.38;1.27;;;;;;;17.84;nan;60908.97;5091408;28;20204;-65
2023/09/21 00:40:45;;;;;;;3.40;1.30;;;;;;;17.92;nan;60721.53;5092412;28;20176;-65
2023/09/21 00:43:20;;;;;;;3.80;1.42;;;;;;;17.73;nan;60525.16;5092453;28;20177;-65
2023/09/21 00:45:59;;;;;;;2.20;1.75;;;;;;;17.84;nan;60583.38;5092322;28;20173;-65
2023/09/21 00:48:31;;;;;;;2.00;1.75;;;;;;;17.68;nan;60617.72;5091972;28;20625;-65
2023/09/21 00:50:58;;;;;;;1.52;1.25;;;;;;;17.82;nan;60493.84;5091906;28;20546;-65
2023/09/21 00:53:27;;;;;;;2.20;1.80;;;;;;;17.74;nan;60370.72;5092135;28;20306;-65
2023/09/21 00:55:56;;;;;;;2.45;1.40;;;;;;;17.60;nan;60371.19;5092228;28;20153;-65
2023/09/21 00:58:23;;;;;;;1.70;1.17;;;;;;;17.49;nan;59925.69;5091951;28;20193;-65
2023/09/21 01:00:50;;;;;;;1.40;1.17;;;;;;;17.31;nan;59990.94;5092073;28;20188;-65
2023/09/21 01:03:17;;;;;;;2.53;1.60;;;;;;;17.41;nan;60082.06;5092103;28;20208;-65
2023/09/21 01:05:45;;;;;;;1.55;1.23;;;;;;;17.37;nan;60139.59;5091911;28;20181;-66
2023/09/21 01:08:18;;;;;;;1.17;1.08;;;;;;;17.39;nan;60265.72;5092081;28;20170;-65
2023/09/21 04:57:04;;;;;;;1.58;1.48;;;;;;;18.28;nan;61237.06;4897851;28;20263;-65
2023/09/21 04:59:29;;;;;;;3.38;2.17;;;;;;;18.45;nan;61342.19;5048819;28;20258;-64
2023/09/21 05:01:55;;;;;;;3.45;2.25;;;;;;;18.49;nan;61325.44;5031821;28;20226;-62
2023/09/21 05:04:21;;;;;;;2.10;1.48;;;;;;;18.33;nan;61558.25;5037602;28;20182;-63
2023/09/21 05:06:46;;;;;;;1.98;1.63;;;;;;;18.56;nan;61379.38;5050732;28;20174;-62
2023/09/21 05:09:12;;;;;;;2.65;1.55;;;;;;;18.53;nan;61333.13;5051963;28;20202;-61
2023/09/21 05:11:41;;;;;;;2.88;1.75;;;;;;;18.26;nan;61312.97;5051615;28;20249;-64
2023/09/21 05:14:07;;;;;;;1.70;1.35;;;;;;;18.37;nan;61359.00;5050360;28;20163;-62
2023/09/21 05:16:33;;;;;;;1.70;1.60;;;;;;;18.19;nan;61330.94;5051671;28;20167;-63
2023/09/21 05:18:59;;;;;;;2.75;1.50;;;;;;;18.41;nan;61339.69;5050767;28;20244;-63
2023/09/21 05:21:25;;;;;;;2.72;2.17;;;;;;;18.24;nan;61299.81;5049126;28;20198;-63
2023/09/21 05:23:50;;;;;;;2.58;1.58;;;;;;;18.38;nan;61298.06;5033752;28;20202;-64
2023/09/21 05:26:16;;;;;;;2.45;1.88;;;;;;;18.51;nan;61460.22;5045395;28;20179;-65
2023/09/21 05:28:43;;;;;;;2.60;1.52;;;;;;;18.74;nan;61578.88;5031054;28;20171;-63
2023/09/21 05:31:09;;;;;;;2.15;1.63;;;;;;;18.76;nan;61485.38;5041581;28;20182;-65
2023/09/21 05:33:37;;;;;;;1.38;1.27;;;;;;;18.92;nan;61409.69;5050944;28;20170;-64
2023/09/21 05:36:06;;;;;;;1.73;1.63;;;;;;;18.91;nan;61359.41;5042913;28;20186;-65
2023/09/21 05:38:32;;;;;;;2.50;1.70;;;;;;;19.09;nan;61447.06;5051057;28;20225;-65
2023/09/21 05:41:06;;;;;;;2.13;1.83;;;;;;;19.23;nan;61483.06;5051248;28;20628;-63
2023/09/21 05:43:31;;;;;;;1.40;1.17;;;;;;;19.12;nan;61439.53;5051179;28;20194;-64
2023/09/21 05:45:57;;;;;;;2.60;2.00;;;;;;;19.00;nan;61480.91;5051745;28;20191;-62
2023/09/21 05:48:22;;;;;;;2.55;1.80;;;;;;;18.94;nan;61497.97;5051251;28;20477;-63
2023/09/21 05:50:49;;;;;;;2.70;1.48;;;;;;;19.04;nan;61485.44;5050875;28;20630;-61
2023/09/21 05:53:14;;;;;;;1.90;1.48;;;;;;;19.17;nan;61741.00;5051222;28;20177;-63
2023/09/21 05:55:40;;;;;;;5.00;1.90;;;;;;;19.11;nan;61628.00;5050392;28;20222;-64
2023/09/21 05:58:06;;;;;;;3.22;2.00;;;;;;;19.12;nan;61507.41;5050689;28;20240;-64
2023/09/21 06:00:32;;;;;;;1.45;1.35;;;;;;;18.90;nan;61477.34;5051531;28;20206;-62
2023/09/21 06:03:00;;;;;;;2.83;2.25;;;;;;;18.99;nan;61453.88;5051475;28;20257;-64
2023/09/21 06:05:31;;;;;;;1.83;1.20;;;;;;;19.11;nan;61470.03;5051797;28;20306;-67
2023/09/21 06:07:58;;;;;;;1.80;1.67;;;;;;;19.09;nan;61425.78;5052486;28;20171;-66
2023/09/21 06:10:24;;;;;;;1.85;1.60;;;;;;;18.83;nan;61386.59;5054879;28;20524;-66
2023/09/21 06:12:50;;;;;;;2.10;1.90;;;;;;;18.98;nan;61558.91;5056386;28;20594;-63
2023/09/21 06:15:16;;;;;;;2.28;1.40;;;;;;;19.32;nan;61586.50;5055267;28;20185;-63
2023/09/21 06:17:42;;;;;;;2.58;1.25;;;;;;;19.29;nan;61456.16;5055700;28;20170;-63
2023/09/21 06:20:07;;;;;;;2.25;1.35;;;;;;;19.47;nan;61512.25;5055625;28;20634;-65
2023/09/21 06:22:33;;;;;;;3.65;1.80;;;;;;;19.60;nan;61571.03;5056009;28;20163;-63
2023/09/21 06:24:59;;;;;;;2.50;1.50;;;;;;;19.77;nan;61647.88;5055403;28;20647;-63
2023/09/21 06:27:25;;;;;;;1.77;1.45;;;;;;;20.05;nan;61582.53;5055667;28;20180;-65
2023/09/21 06:29:51;;;;;;;2.03;1.50;;;;;;;20.09;nan;61729.72;5055108;28;20636;-64
2023/09/21 06:32:18;;;;;;;2.53;1.20;;;;;;;20.56;nan;61650.69;5055154;28;20567;-63
2023/09/21 06:34:45;;;;;;;1.90;1.70;;;;;;;20.72;nan;61639.69;5055293;28;20167;-63
2023/09/21 06:37:11;;;;;;;3.63;1.52;;;;;;;21.13;nan;61777.13;5055000;28;20163;-62
2023/09/21 06:39:36;;;;;;;3.42;1.50;;;;;;;21.52;nan;61797.44;5054732;28;20231;-62
2023/09/21 06:42:02;;;;;;;1.48;1.30;;;;;;;21.76;nan;61833.94;5055224;28;20163;-64
2023/09/21 06:44:29;;;;;;;2.00;1.77;;;;;;;21.91;nan;61888.00;5055241;28;20646;-63
2023/09/21 06:46:55;;;;;;;3.30;1.83;;;;;;;21.87;nan;61844.41;5054630;28;20538;-62
2023/09/21 06:49:21;;;;;;;1.98;1.58;;;;;;;21.91;nan;61900.44;5054027;28;20171;-64
2023/09/21 06:51:49;;;;;;;2.10;1.38;;;;;;;21.96;nan;61893.13;5037125;28;20185;-63
2023/09/21 06:54:18;;;;;;;2.58;1.65;;;;;;;22.13;nan;61880.63;5048455;28;20183;-64
2023/09/21 06:56:43;;;;;;;1.95;1.30;;;;;;;22.27;nan;61881.50;5033915;28;20226;-65
2023/09/21 06:59:08;;;;;;;1.75;1.33;;;;;;;22.33;nan;61882.53;5051981;28;20290;-65
2023/09/21 07:01:34;;;;;;;1.30;1.15;;;;;;;22.35;nan;61936.88;5034854;28;20288;-63
2023/09/21 07:04:00;;;;;;;1.35;1.08;;;;;;;21.91;nan;61804.72;5036039;28;20699;-64
2023/09/21 07:06:26;;;;;;;2.30;1.73;;;;;;;21.60;nan;61842.91;5049760;28;20190;-64
2023/09/21 07:08:52;;;;;;;2.20;1.25;;;;;;;21.52;nan;61945.66;5034790;28;20175;-63
2023/09/21 07:11:21;;;;;;;2.00;1.80;;;;;;;21.13;nan;61792.72;5044897;28;20186;-65
2023/09/21 07:13:47;;;;;;;2.53;1.60;;;;;;;21.21;nan;61922.81;5046581;28;20189;-65
2023/09/21 07:16:13;;;;;;;1.45;1.35;;;;;;;21.52;nan;61802.06;5043913;28;20646;-65
2023/09/21 07:18:39;;;;;;;1.60;1.20;;;;;;;21.46;nan;61722.44;5042143;28;20204;-67
2023/09/21 07:21:05;;;;;;;2.95;1.50;;;;;;;21.57;nan;61862.91;5033740;28;20640;-66
2023/09/21 07:23:31;;;;;;;1.77;1.20;;;;;;;21.46;nan;61923.22;5051534;28;20267;-64
2023/09/21 07:25:57;;;;;;;1.85;1.10;;;;;;;21.70;nan;62108.03;5054380;28;20645;-67
2023/09/21 07:28:23;;;;;;;1.65;1.27;;;;;;;21.58;nan;61845.28;5055041;28;20659;-64
2023/09/21 07:30:52;;;;;;;1.05;0.95;;;;;;;21.81;nan;62125.78;5054105;28;20210;-64
2023/09/21 07:33:21;;;;;;;1.23;1.00;;;;;;;21.79;nan;61845.16;5054264;28;20647;-63
2023/09/21 07:35:48;;;;;;;2.55;1.58;;;;;;;22.11;nan;61907.56;5054367;28;20212;-64
2023/09/21 07:38:13;;;;;;;1.92;1.30;;;;;;;22.08;nan;61977.03;5039682;28;20218;-65
2023/09/21 07:40:39;;;;;;;2.50;1.88;;;;;;;22.41;nan;61897.41;5032627;28;20204;-64
2023/09/21 07:43:06;;;;;;;2.53;1.40;;;;;;;22.38;nan;61841.34;5032292;28;20176;-64
2023/09/21 07:45:32;;;;;;;1.15;0.98;;;;;;;22.37;nan;62049.09;5032728;28;20176;-68
2023/09/21 07:47:58;;;;;;;1.40;1.08;;;;;;;22.66;nan;61935.66;5043206;28;20225;-66
2023/09/21 07:50:23;;;;;;;2.20;1.40;;;;;;;22.49;nan;61950.19;5038705;28;20734;-63
2023/09/21 07:52:49;;;;;;;2.00;1.60;;;;;;;22.67;nan;61996.72;5032490;28;20642;-63
2023/09/21 07:55:15;;;;;;;1.88;1.42;;;;;;;22.32;nan;61881.41;5032619;28;20306;-65
2023/09/21 07:57:40;;;;;;;1.83;1.38;;;;;;;22.15;nan;61859.50;5033063;28;20279;-62
2023/09/21 08:00:09;;;;;;;2.35;1.83;;;;;;;22.34;nan;61920.69;5039650;28;20290;-64
2023/09/21 08:02:35;;;;;;;1.80;1.52;;;;;;;22.35;nan;61859.34;5032355;28;20187;-65
2023/09/21 08:05:02;;;;;;;1.80;1.42;;;;;;;22.26;nan;62099.03;5031827;28;20186;-65
2023/09/21 08:07:28;;;;;;;1.98;1.35;;;;;;;22.75;nan;61979.78;5040555;28;20224;-64
2023/09/21 08:09:57;;;;;;;1.38;1.27;;;;;;;22.73;nan;62131.22;5045104;28;20175;-64
2023/09/21 08:12:24;;;;;;;2.20;1.50;;;;;;;;;;5033401;28;20178;-63
2023/09/21 08:14:49;;;;;;;1.38;1.23;;;;;;;23.28;nan;62122.38;5048725;28;20174;-67
2023/09/21 08:17:15;;;;;;;1.50;1.20;;;;;;;23.63;nan;62089.22;5052833;28;20182;-64
2023/09/21 08:19:40;;;;;;;2.75;1.42;;;;;;;23.51;nan;62099.06;5053011;28;20191;-65
2023/09/21 08:22:06;;;;;;;1.38;1.20;;;;;;;23.72;nan;62226.78;5053520;28;20228;-64
2023/09/21 08:24:34;;;;;;;2.15;1.33;;;;;;;24.13;nan;62148.22;5053418;28;20167;-63
2023/09/21 08:27:00;;;;;;;1.35;1.25;;;;;;;24.23;nan;62296.94;5053070;28;20170;-65
2023/09/21 08:29:26;;;;;;;1.48;1.25;;;;;;;24.38;nan;62311.44;5053039;28;20236;-62
2023/09/21 08:31:51;;;;;;;1.75;1.45;;;;;;;24.84;nan;62259.38;5052323;28;20170;-65
2023/09/21 08:34:19;;;;;;;1.58;1.27;;;;;;;24.81;nan;62197.88;5052787;28;20221;-65
2023/09/21 08:36:44;;;;;;;2.45;1.33;;;;;;;25.23;nan;62279.81;5053328;28;20179;-64
2023/09/21 08:39:10;;;;;;;1.58;1.10;;;;;;;25.35;nan;62562.41;5052727;28;20186;-63
2023/09/21 08:41:39;;;;;;;1.20;1.10;;;;;;;25.52;nan;62501.31;5052661;28;20175;-66
2023/09/21 08:44:07;;;;;;;1.83;1.30;;;;;;;25.41;nan;62386.13;5052691;28;20211;-66
2023/09/21 08:46:33;;;;;;;2.40;1.95;;;;;;;25.22;nan;62336.22;5052666;28;20558;-65
2023/09/21 08:49:00;;;;;;;1.85;1.33;;;;;;;25.13;nan;62218.69;5052904;28;20715;-66
2023/09/21 08:51:28;;;;;;;2.85;1.10;;;;;;;24.92;nan;62241.84;5052440;28;20175;-66
2023/09/21 08:53:54;;;;;;;2.13;1.35;;;;;;;25.20;nan;62349.06;5052266;28;20181;-63
2023/09/21 08:56:21;;;;;;;1.63;1.23;;;;;;;25.38;nan;62280.66;5044007;28;20219;-63
2023/09/21 08:58:52;;;;;;;1.10;1.00;;;;;;;25.58;nan;62450.06;5032113;28;20195;-65
2023/09/21 09:01:19;;;;;;;1.30;1.20;;;;;;;25.92;nan;62443.84;5032297;28;20187;-63
2023/09/21 09:03:44;;;;;;;0.80;0.80;;;;;;;26.20;nan;62380.97;5032214;28;20246;-65
2023/09/21 09:06:10;;;;;;;1.25;1.10;;;;;;;26.22;nan;62355.00;5031977;28;20175;-66
2023/09/21 09:08:35;;;;;;;1.20;1.10;;;;;;;26.64;nan;62530.28;5033607;28;20266;-63
2023/09/21 09:11:01;;;;;;;2.25;1.48;;;;;;;26.88;nan;62528.91;5032001;28;20183;-64
2023/09/21 09:13:32;;;;;;;1.48;1.15;;;;;;;27.11;nan;62633.94;5031624;28;20203;-63
2023/09/21 09:16:03;;;;;;;2.83;1.60;;;;;;;26.94;nan;62611.88;5031898;28;20179;-64
2023/09/21 09:18:29;;;;;;;2.08;1.45;;;;;;;26.65;nan;62481.63;5031802;28;20159;-64
2023/09/21 09:20:55;;;;;;;1.73;1.42;;;;;;;26.66;nan;62511.59;5031685;28;20178;-64
2023/09/21 09:23:21;;;;;;;1.55;1.40;;;;;;;26.18;nan;62434.25;5031828;28;20167;-65
2023/09/21 09:25:49;;;;;;;1.88;1.35;;;;;;;26.16;nan;62466.03;5031806;28;20168;-64
2023/09/21 09:28:15;;;;;;;1.38;1.27;;;;;;;25.95;nan;62415.84;5031781;28;20160;-63
2023/09/21 09:30:41;;;;;;;2.20;1.38;;;;;;;25.79;nan;62481.94;5031609;28;20176;-65
2023/09/21 09:33:15;;;;;;;1.05;1.00;;;;;;;25.79;nan;62623.34;5031388;28;20187;-62
2023/09/21 09:35:41;;;;;;;1.67;1.40;;;;;;;26.06;nan;62488.09;5030977;28;20257;-67
2023/09/21 09:38:09;;;;;;;1.67;1.58;;;;;;;25.84;nan;62311.63;5031460;28;20183;-63
2023/09/21 09:40:37;;;;;;;1.67;1.27;;;;;;;26.01;nan;62553.09;5031426;28;20650;-65
2023/09/21 09:43:06;;;;;;;1.23;1.13;;;;;;;26.29;nan;62467.81;5031355;28;20633;-63
2023/09/21 09:45:32;;;;;;;1.13;1.02;;;;;;;26.34;nan;62463.06;5030907;28;20175;-64
2023/09/21 09:48:01;;;;;;;1.48;1.10;;;;;;;26.73;nan;62530.66;5029781;28;20582;-63
2023/09/21 09:50:36;;;;;;;1.77;1.55;;;;;;;26.40;nan;62392.78;5029751;28;20274;-65
2023/09/21 09:53:10;;;;;;;1.30;1.20;;;;;;;26.77;nan;62610.75;5041910;28;20284;-65
2023/09/21 09:55:37;;;;;;;2.05;1.45;;;;;;;26.94;nan;62656.47;5036875;28;20760;-65
2023/09/21 09:58:03;;;;;;;3.20;1.25;;;;;;;26.63;nan;62581.59;5031100;28;20202;-62
2023/09/21 10:00:30;;;;;;;2.58;1.88;;;;;;;26.45;nan;62603.50;5050028;28;20198;-64
2023/09/21 10:02:57;;;;;;;3.58;1.83;;;;;;;26.62;nan;62578.41;5047953;28;20257;-65
2023/09/21 10:05:24;;;;;;;2.28;1.42;;;;;;;26.70;nan;62484.72;5036560;28;20182;-64
2023/09/21 10:07:51;;;;;;;3.15;1.60;;;;;;;26.59;nan;62614.28;5044023;28;20636;-63
2023/09/21 10:10:20;;;;;;;1.30;1.20;;;;;;;26.52;nan;62590.53;5031567;28;20300;-64
2023/09/21 10:12:50;;;;;;;1.58;1.20;;;;;;;26.86;nan;62681.41;5044900;28;20644;-64
2023/09/21 10:15:22;;;;;;;1.80;1.35;;;;;;;27.53;nan;62670.44;5051054;28;20160;-64
2023/09/21 10:17:50;;;;;;;1.63;1.30;;;;;;;27.87;nan;62761.94;5051026;28;20223;-64
2023/09/21 10:20:24;;;;;;;1.90;1.25;;;;;;;28.11;nan;62658.06;5050847;28;20806;-63
2023/09/21 10:23:01;;;;;;;1.80;1.17;;;;;;;28.48;nan;62701.94;5050819;28;20159;-65
2023/09/21 10:25:39;;;;;;;1.58;1.20;;;;;;;28.59;nan;62825.00;5050860;28;20181;-64
2023/09/21 10:28:29;;;;;;;2.78;1.52;;;;;;;28.65;nan;62849.75;5050917;28;20506;-66
2023/09/21 10:31:09;;;;;;;1.60;1.10;;;;;;;28.71;nan;62817.78;5050661;28;20208;-64
2023/09/21 10:34:08;;;;;;;2.28;1.50;;;;;;;27.94;nan;62777.28;5051126;28;20220;-64
2023/09/21 10:36:38;;;;;;;1.73;1.40;;;;;;;27.69;nan;62843.75;5050125;28;20291;-65
2023/09/21 10:39:06;;;;;;;2.40;1.60;;;;;;;27.70;nan;62726.13;5050761;28;20186;-66
2023/09/21 10:41:32;;;;;;;2.10;1.20;;;;;;;27.47;nan;62666.16;5033488;28;20191;-65
2023/09/21 10:44:00;;;;;;;1.40;1.30;;;;;;;27.57;nan;62622.50;5048259;28;20726;-64
2023/09/21 10:46:26;;;;;;;1.88;1.60;;;;;;;27.10;nan;62567.19;5030916;28;20217;-64
2023/09/21 10:49:14;;;;;;;2.05;1.20;;;;;;;27.01;nan;62708.50;5037063;28;20709;-63
2023/09/21 10:51:40;;;;;;;1.67;1.30;;;;;;;27.08;nan;62532.84;5050871;28;20167;-64
2023/09/21 10:54:06;;;;;;;1.95;1.35;;;;;;;27.41;nan;62612.03;5050863;28;20532;-64
2023/09/21 10:56:36;;;;;;;2.25;1.35;;;;;;;27.39;nan;62615.00;5053601;28;20226;-66
2023/09/21 10:59:01;;;;;;;1.88;1.00;;;;;;;27.36;nan;62889.84;5053933;28;20241;-63
2023/09/21 11:01:27;;;;;;;7.35;2.22;;;;;;;27.50;nan;62680.72;5053283;28;20210;-67
2023/09/21 11:03:53;;;;;;;1.73;1.40;;;;;;;27.77;nan;62695.31;5054119;28;20191;-63
2023/09/21 11:06:20;;;;;;;1.42;1.23;;;;;;;27.44;nan;62612.84;5053721;28;20163;-64
2023/09/21 11:08:49;;;;;;;1.58;1.40;;;;;;;27.61;nan;62643.41;5053970;28;20198;-67
2023/09/21 11:11:16;;;;;;;2.35;1.45;;;;;;;27.10;nan;62540.97;5054052;28;20232;-67
2023/09/21 11:13:42;;;;;;;2.58;1.38;;;;;;;27.39;nan;62599.25;5054037;28;20269;-66
2023/09/21 11:16:14;;;;;;;2.75;1.75;;;;;;;26.73;nan;62530.66;5052272;28;20213;-65
2023/09/21 11:18:40;;;;;;;1.52;1.17;;;;;;;27.38;nan;62719.44;5053869;28;20197;-67
2023/09/21 11:21:08;;;;;;;2.08;1.20;;;;;;;27.31;nan;62731.84;5054239;28;20167;-69
2023/09/21 11:23:35;;;;;;;2.22;1.25;;;;;;;27.54;nan;62718.84;5054489;28;20695;-65
2023/09/21 11:26:01;;;;;;;2.22;1.20;;;;;;;27.35;nan;62686.53;5053612;28;20662;-66
2023/09/21 11:28:27;;;;;;;1.88;1.40;;;;;;;27.27;nan;62596.00;5054397;28;20268;-68
2023/09/21 11:30:53;;;;;;;1.65;1.25;;;;;;;27.17;nan;62690.13;5053979;28;20170;-67
2023/09/21 11:33:19;;;;;;;1.90;1.35;;;;;;;27.41;nan;62738.63;5053959;28;20266;-69
2023/09/21 11:35:45;;;;;;;1.40;1.27;;;;;;;27.65;nan;62886.44;5053427;28;20213;-66
2023/09/21 11:38:12;;;;;;;2.55;1.52;;;;;;;27.68;nan;62664.56;5053366;28;20194;-68
2023/09/21 11:40:38;;;;;;;1.88;1.40;;;;;;;27.94;nan;62772.59;5053556;28;20245;-66
2023/09/21 11:43:04;;;;;;;2.50;1.40;;;;;;;27.94;nan;62703.69;5053702;28;20257;-67
2023/09/21 11:45:30;;;;;;;1.55;1.20;;;;;;;27.90;nan;62807.44;5053720;28;20270;-70
2023/09/21 11:47:59;;;;;;;1.85;1.70;;;;;;;28.76;nan;62767.69;5053886;28;20607;-65
2023/09/21 11:50:26;;;;;;;1.20;1.00;;;;;;;28.84;nan;62958.41;5053911;28;20174;-70
2023/09/21 11:53:00;;;;;;;1.85;1.38;;;;;;;28.79;nan;62826.94;5053763;28;20260;-69
2023/09/21 11:55:30;;;;;;;1.50;1.10;;;;;;;28.87;nan;62788.75;5053457;28;20224;-68
2023/09/21 11:58:09;;;;;;;1.25;1.15;;;;;;;28.54;nan;62704.13;5054113;28;20170;-67
2023/09/21 12:00:46;;;;;;;1.90;1.55;;;;;;;28.78;nan;62898.88;5053885;28;20240;-68
2023/09/21 12:03:16;;;;;;;2.30;1.55;;;;;;;29.13;nan;62949.63;5053473;28;20162;-69
2023/09/21 12:05:44;;;;;;;1.40;1.17;;;;;;;29.23;nan;62897.34;5055501;28;20176;-65
2023/09/21 12:08:12;;;;;;;2.33;1.83;;;;;;;28.83;nan;62923.63;5054355;28;20170;-69
2023/09/21 12:10:37;;;;;;;1.50;1.30;;;;;;;29.08;nan;62964.38;5053191;28;20209;-67
2023/09/21 12:13:03;;;;;;;1.60;1.30;;;;;;;29.57;nan;63083.97;5053921;28;20200;-65
2023/09/21 12:15:30;;;;;;;2.03;1.55;;;;;;;29.72;nan;63037.97;5053499;28;20201;-65
2023/09/21 12:17:55;;;;;;;1.77;1.30;;;;;;;29.46;nan;63031.22;5053318;28;20202;-67
2023/09/21 12:20:22;;;;;;;1.33;1.20;;;;;;;29.59;nan;62951.91;5052609;28;20707;-68
2023/09/21 12:22:47;;;;;;;2.08;1.48;;;;;;;29.34;nan;62870.50;5053016;28;20185;-64
2023/09/21 12:25:14;;;;;;;1.70;1.45;;;;;;;29.31;nan;62964.50;5053229;28;20194;-65
2023/09/21 12:27:41;;;;;;;1.67;1.38;;;;;;;29.06;nan;62956.81;5053079;28;20158;-64
2023/09/21 12:30:12;;;;;;;2.05;1.38;;;;;;;29.30;nan;62973.88;5053073;28;20593;-66
2023/09/21 12:32:41;;;;;;;2.10;1.42;;;;;;;29.70;nan;62879.63;5053086;28;20228;-66
2023/09/21 12:35:11;;;;;;;2.35;1.52;;;;;;;29.71;nan;63047.38;5053022;28;20220;-70
2023/09/21 12:37:39;;;;;;;1.58;1.30;;;;;;;29.35;nan;62932.22;5053171;28;20166;-67
2023/09/21 12:40:11;;;;;;;1.50;1.35;;;;;;;28.85;nan;62857.50;5052936;28;20215;-68
2023/09/21 12:42:42;;;;;;;2.08;1.40;;;;;;;28.69;nan;62881.22;5052903;28;20158;-68
2023/09/21 12:45:12;;;;;;;1.75;1.23;;;;;;;28.52;nan;62927.47;5052524;28;20167;-67
2023/09/21 12:47:44;;;;;;;1.55;1.38;;;;;;;28.46;nan;62915.28;5052477;28;20197;-68
2023/09/21 12:50:11;;;;;;;2.70;1.42;;;;;;;28.56;nan;62832.09;5052722;28;20178;-68
2023/09/21 12:52:37;;;;;;;2.33;1.85;;;;;;;28.28;nan;62847.28;5052765;28;20180;-68
2023/09/21 12:55:07;;;;;;;2.92;0.90;;;;;;;28.27;nan;62762.59;5053066;28;20181;-65
2023/09/21 12:57:36;;;;;;;1.90;1.30;;;;;;;28.61;nan;62808.91;5052664;28;20170;-65
2023/09/21 13:00:25;;;;;;;1.52;1.20;;;;;;;28.59;nan;62782.34;5052374;28;20208;-64
2023/09/21 13:02:50;;;;;;;2.40;1.45;;;;;;;28.84;nan;62882.09;5053040;28;20166;-64
2023/09/21 13:05:16;;;;;;;1.30;1.15;;;;;;;27.80;nan;62803.81;5054916;28;20272;-64
2023/09/21 13:07:43;;;;;;;1.95;1.45;;;;;;;29.34;nan;62875.75;5053503;28;20162;-69
2023/09/21 13:10:10;;;;;;;2.63;1.52;;;;;;;29.47;nan;62919.66;5052859;28;20667;-67
2023/09/21 13:12:37;;;;;;;1.45;1.35;;;;;;;29.25;nan;62849.63;5052732;28;20212;-66
2023/09/21 13:15:03;;;;;;;2.65;1.58;;;;;;;29.42;nan;62938.19;5052421;28;20154;-67
2023/09/21 13:17:29;;;;;;;2.08;1.73;;;;;;;29.40;nan;62927.44;5052279;28;20166;-69
2023/09/21 13:19:54;;;;;;;1.95;1.63;;;;;;;29.22;nan;62996.28;5051627;28;20548;-67
2023/09/21 13:22:21;;;;;;;2.72;1.48;;;;;;;28.98;nan;62758.69;5052169;28;20174;-71
2023/09/21 13:24:46;;;;;;;2.88;1.40;;;;;;;29.15;nan;62838.13;5050497;28;20170;-69
2023/09/21 13:27:13;;;;;;;1.85;1.42;;;;;;;28.85;nan;62818.03;5051890;28;20173;-69
2023/09/21 13:29:39;;;;;;;2.17;1.48;;;;;;;28.92;nan;62857.66;5051850;28;20174;-70
2023/09/21 13:32:05;;;;;;;2.00;1.50;;;;;;;28.86;nan;62879.69;5052092;28;20174;-66
2023/09/21 13:34:30;;;;;;;1.67;1.40;;;;;;;28.71;nan;62827.72;5052290;28;20223;-66
2023/09/21 13:36:55;;;;;;;1.70;1.25;;;;;;;28.60;nan;62893.97;5052104;28;20189;-66
2023/09/21 13:39:22;;;;;;;1.75;1.30;;;;;;;28.33;nan;62761.00;5051930;28;20673;-65
2023/09/21 13:41:56;;;;;;;2.03;1.50;;;;;;;28.54;nan;62782.44;5052042;28;20228;-66
2023/09/21 13:44:22;;;;;;;1.67;1.45;;;;;;;28.41;nan;62812.25;5051904;28;20221;-65
2023/09/21 13:46:47;;;;;;;1.60;1.35;;;;;;;28.28;nan;62718.47;5051955;28;20594;-65
2023/09/21 13:49:12;;;;;;;1.90;1.30;;;;;;;28.41;nan;62757.03;5051448;28;20170;-68
2023/09/21 13:51:38;;;;;;;1.65;1.45;;;;;;;28.28;nan;62750.00;5051831;28;20166;-66
2023/09/21 13:54:05;;;;;;;1.42;1.27;;;;;;;28.49;nan;62808.28;5051861;28;20655;-66
2023/09/21 13:56:33;;;;;;;1.98;1.30;;;;;;;28.29;nan;62711.72;5051949;28;20621;-68
2023/09/21 13:59:01;;;;;;;1.55;1.23;;;;;;;28.19;nan;62779.69;5051857;28;20314;-68
2023/09/21 14:01:26;;;;;;;2.20;1.52;;;;;;;27.92;nan;62811.78;5051558;28;20633;-66
2023/09/21 14:03:53;;;;;;;1.90;1.40;;;;;;;27.65;nan;62720.97;5035579;28;20186;-65
2023/09/21 14:06:20;;;;;;;1.83;1.35;;;;;;;27.46;nan;62844.16;5048856;28;20182;-66
2023/09/21 14:08:46;;;;;;;6.43;1.90;;;;;;;27.42;nan;62618.44;5031162;28;20166;-64
2023/09/21 14:11:11;;;;;;;2.40;1.73;;;;;;;27.38;nan;62703.69;5031576;28;20187;-70
2023/09/21 14:13:37;;;;;;;3.55;1.48;;;;;;;27.21;nan;62542.47;5032022;28;20175;-68
2023/09/21 14:16:03;;;;;;;2.50;1.70;;;;;;;26.97;nan;62484.13;5031789;28;20214;-68
2023/09/21 14:18:29;;;;;;;1.98;1.60;;;;;;;27.41;nan;62612.63;5032063;28;20594;-68
2023/09/21 14:20:55;;;;;;;1.90;1.23;;;;;;;27.44;nan;62631.22;5031446;28;20179;-67
2023/09/21 14:23:21;;;;;;;2.50;1.40;;;;;;;27.34;nan;62604.03;5031421;28;20171;-63
2023/09/21 14:25:46;;;;;;;1.95;1.40;;;;;;;27.16;nan;62578.75;5031262;28;20175;-66
2023/09/21 14:28:12;;;;;;;3.25;1.63;;;;;;;26.91;nan;62550.72;5031233;28;20172;-65
2023/09/21 14:30:38;;;;;;;1.30;1.20;;;;;;;26.85;nan;62533.34;5031793;28;20195;-69
2023/09/21 14:33:07;;;;;;;2.35;1.20;;;;;;;26.63;nan;62445.25;5038833;28;20558;-66
2023/09/21 14:35:34;;;;;;;1.33;1.10;;;;;;;26.46;nan;62522.81;5041119;28;20191;-66
2023/09/21 14:38:01;;;;;;;2.08;1.52;;;;;;;26.66;nan;62506.34;5040749;28;20178;-66
2023/09/21 14:40:28;;;;;;;1.80;1.30;;;;;;;26.56;nan;62616.09;5036184;28;20285;-68
2023/09/21 14:42:53;;;;;;;2.17;1.30;;;;;;;;;;5038518;28;20183;-69
2023/09/21 14:45:21;;;;;;;2.65;1.65;;;;;;;26.53;nan;62494.13;5033189;28;20656;-64
2023/09/21 14:47:47;;;;;;;1.67;1.50;;;;;;;26.54;nan;62467.00;5046941;28;20705;-66
2023/09/21 14:50:12;;;;;;;1.77;1.40;;;;;;;26.50;nan;62488.63;5035342;28;20262;-68
2023/09/21 14:52:38;;;;;;;2.15;1.23;;;;;;;26.64;nan;62462.69;5033554;28;20373;-67
2023/09/21 14:55:04;;;;;;;2.05;1.52;;;;;;;26.67;nan;62654.34;5040703;28;20182;-68
2023/09/21 14:57:29;;;;;;;1.67;1.20;;;;;;;26.86;nan;62545.00;5035351;28;20567;-67
2023/09/21 14:59:55;;;;;;;3.90;1.92;;;;;;;26.76;nan;62518.38;5041061;28;20211;-69
2023/09/21 15:02:20;;;;;;;1.75;1.33;;;;;;;26.76;nan;62509.94;5033847;28;20195;-66
2023/09/21 15:04:46;;;;;;;2.28;1.15;;;;;;;26.64;nan;62488.91;5046141;28;20182;-69
2023/09/21 15:07:12;;;;;;;1.60;1.23;;;;;;;26.68;nan;62511.84;5038976;28;20213;-67
2023/09/21 15:09:38;;;;;;;1.50;1.20;;;;;;;26.65;nan;62500.53;5033719;28;20668;-68
2023/09/21 15:12:04;;;;;;;2.88;1.90;;;;;;;26.54;nan;62424.50;5053600;28;20178;-66
2023/09/21 15:14:31;;;;;;;1.48;1.38;;;;;;;26.78;nan;62541.63;5041849;28;20628;-64
2023/09/21 15:16:57;;;;;;;1.40;1.30;;;;;;;26.78;nan;62541.63;5048159;28;20206;-67
2023/09/21 15:19:24;;;;;;;1.58;1.10;;;;;;;26.66;nan;62459.72;5035352;28;20203;-64
2023/09/21 15:21:49;;;;;;;1.75;1.30;;;;;;;26.64;nan;62622.06;5046872;28;20183;-67
2023/09/21 15:24:15;;;;;;;1.60;1.30;;;;;;;26.67;nan;62523.25;5042415;28;20181;-68
2023/09/21 15:26:40;;;;;;;0.98;0.88;;;;;;;26.91;nan;62629.41;5043815;28;20179;-64
2023/09/21 15:29:06;;;;;;;1.52;1.30;;;;;;;26.94;nan;62600.78;5033846;28;20263;-67
2023/09/21 15:31:32;;;;;;;2.50;1.38;;;;;;;26.92;nan;62527.66;5040227;28;20190;-64
2023/09/21 15:33:58;;;;;;;1.65;1.55;;;;;;;26.99;nan;62586.09;5039166;28;20554;-68
2023/09/21 15:36:24;;;;;;;2.03;1.55;;;;;;;27.02;nan;62568.53;5045458;28;20266;-69
2023/09/21 15:38:49;;;;;;;2.42;1.67;;;;;;;26.87;nan;62546.13;5033590;28;20249;-66